N395T KACK-5B2
Flight info
| Callsign | N395T |
|---|---|
| Flight time | N/A |
| Altitude | 16000 |
| Route | MVY PVD V146 ALB |
| Aircraft | PC12/L-SDFGRWY/S |
Departure
| Time | 2026-04-29 12:41 |
|---|---|
| Airport | Nantucket Memorial Airport (KACK) |
Arrival
| Time | N/A |
|---|---|
| Airport | 5B2 |
| Time | Latitude | Longitude | Altitude | Speed | Heading |
|---|---|---|---|---|---|
| 2026-04-29 12:38 | 41.25558 | -70.06505 | 45 ft | 8 kts | 223° |
| 2026-04-29 12:38 | 41.25518 | -70.06559 | 45 ft | 9 kts | 223° |
| 2026-04-29 12:38 | 41.25463 | -70.06520 | 44 ft | 14 kts | 135° |
| 2026-04-29 12:38 | 41.25380 | -70.06550 | 43 ft | 15 kts | 226° |
| 2026-04-29 12:39 | 41.25305 | -70.06650 | 42 ft | 15 kts | 224° |
| 2026-04-29 12:39 | 41.25230 | -70.06748 | 40 ft | 16 kts | 225° |
| 2026-04-29 12:39 | 41.25134 | -70.06873 | 38 ft | 21 kts | 224° |
| 2026-04-29 12:39 | 41.25035 | -70.07009 | 37 ft | 20 kts | 225° |
| 2026-04-29 12:40 | 41.24937 | -70.07139 | 35 ft | 21 kts | 225° |
| 2026-04-29 12:40 | 41.24834 | -70.07276 | 33 ft | 20 kts | 225° |
| 2026-04-29 12:40 | 41.24737 | -70.07291 | 31 ft | 17 kts | 113° |
| 2026-04-29 12:40 | 41.24815 | -70.07091 | 34 ft | 43 kts | 45° |
| 2026-04-29 12:41 | 41.25132 | -70.06673 | 39 ft | 84 kts | 45° |
| 2026-04-29 12:41 | 41.25604 | -70.06045 | 140 ft | 103 kts | 46° |
| 2026-04-29 12:41 | 41.26116 | -70.05362 | 418 ft | 105 kts | 46° |
| 2026-04-29 12:41 | 41.26695 | -70.04778 | 704 ft | 109 kts | 23° |
| 2026-04-29 12:42 | 41.27488 | -70.04572 | 894 ft | 128 kts | 356° |
| 2026-04-29 12:42 | 41.28405 | -70.04773 | 1225 ft | 140 kts | 346° |
| 2026-04-29 12:42 | 41.29364 | -70.05185 | 1566 ft | 150 kts | 323° |
| 2026-04-29 12:42 | 41.29958 | -70.06320 | 1906 ft | 157 kts | 285° |
| 2026-04-29 12:43 | 41.30220 | -70.07786 | 2249 ft | 166 kts | 282° |
| 2026-04-29 12:43 | 41.30484 | -70.09317 | 2578 ft | 173 kts | 282° |
| 2026-04-29 12:43 | 41.30764 | -70.10886 | 2903 ft | 177 kts | 283° |
| 2026-04-29 12:43 | 41.31052 | -70.12500 | 3232 ft | 181 kts | 283° |
| 2026-04-29 12:44 | 41.31345 | -70.14145 | 3557 ft | 185 kts | 283° |
| 2026-04-29 12:44 | 41.31644 | -70.15824 | 3884 ft | 188 kts | 283° |
| 2026-04-29 12:44 | 41.31949 | -70.17538 | 4210 ft | 191 kts | 283° |
| 2026-04-29 12:44 | 41.32256 | -70.19270 | 4536 ft | 193 kts | 283° |
| 2026-04-29 12:45 | 41.32563 | -70.21001 | 4859 ft | 195 kts | 283° |
| 2026-04-29 12:45 | 41.32877 | -70.22770 | 5191 ft | 196 kts | 283° |
| 2026-04-29 12:45 | 41.33186 | -70.24515 | 5508 ft | 196 kts | 283° |
| 2026-04-29 12:45 | 41.33499 | -70.26285 | 5834 ft | 197 kts | 283° |
| 2026-04-29 12:46 | 41.33812 | -70.28057 | 6157 ft | 197 kts | 283° |
| 2026-04-29 12:46 | 41.34126 | -70.29837 | 6483 ft | 197 kts | 283° |
| 2026-04-29 12:46 | 41.34440 | -70.31617 | 6808 ft | 197 kts | 283° |
| 2026-04-29 12:46 | 41.34753 | -70.33398 | 7133 ft | 198 kts | 283° |
| 2026-04-29 12:47 | 41.35068 | -70.35183 | 7458 ft | 198 kts | 283° |
| 2026-04-29 12:47 | 41.35381 | -70.36968 | 7773 ft | 198 kts | 283° |
| 2026-04-29 12:47 | 41.35690 | -70.38729 | 8104 ft | 198 kts | 283° |
| 2026-04-29 12:47 | 41.36003 | -70.40511 | 8429 ft | 198 kts | 283° |
| 2026-04-29 12:48 | 41.36317 | -70.42303 | 8755 ft | 198 kts | 283° |
| 2026-04-29 12:48 | 41.36628 | -70.44081 | 9079 ft | 198 kts | 283° |
| 2026-04-29 12:48 | 41.36940 | -70.45864 | 9404 ft | 198 kts | 283° |
| 2026-04-29 12:48 | 41.37252 | -70.47648 | 9729 ft | 198 kts | 282° |
| 2026-04-29 12:49 | 41.37562 | -70.49427 | 10053 ft | 198 kts | 282° |
| 2026-04-29 12:49 | 41.37874 | -70.51214 | 10380 ft | 198 kts | 282° |
| 2026-04-29 12:49 | 41.38183 | -70.52991 | 10701 ft | 198 kts | 282° |
| 2026-04-29 12:49 | 41.38495 | -70.54781 | 11028 ft | 197 kts | 282° |
| 2026-04-29 12:50 | 41.38804 | -70.56563 | 11353 ft | 197 kts | 282° |
| 2026-04-29 12:50 | 41.39110 | -70.58323 | 11673 ft | 197 kts | 282° |
| 2026-04-29 12:50 | 41.39419 | -70.60103 | 11999 ft | 197 kts | 282° |
| 2026-04-29 12:50 | 41.39832 | -70.61834 | 12323 ft | 196 kts | 296° |
| 2026-04-29 12:51 | 41.40480 | -70.63425 | 12615 ft | 198 kts | 298° |
| 2026-04-29 12:51 | 41.41155 | -70.65049 | 12868 ft | 201 kts | 298° |
| 2026-04-29 12:51 | 41.41827 | -70.66695 | 13120 ft | 204 kts | 297° |
| 2026-04-29 12:51 | 41.42507 | -70.68371 | 13372 ft | 206 kts | 297° |
| 2026-04-29 12:52 | 41.43191 | -70.70057 | 13621 ft | 208 kts | 298° |
| 2026-04-29 12:52 | 41.43884 | -70.71762 | 13874 ft | 209 kts | 298° |
| 2026-04-29 12:52 | 41.44578 | -70.73470 | 14124 ft | 210 kts | 298° |
| 2026-04-29 12:52 | 41.45275 | -70.75190 | 14375 ft | 211 kts | 298° |
| 2026-04-29 12:53 | 41.45974 | -70.76915 | 14627 ft | 212 kts | 298° |
| 2026-04-29 12:53 | 41.46666 | -70.78622 | 14867 ft | 212 kts | 298° |
| 2026-04-29 12:53 | 41.47368 | -70.80357 | 15118 ft | 213 kts | 298° |
| 2026-04-29 12:53 | 41.48073 | -70.82100 | 15374 ft | 213 kts | 297° |
| 2026-04-29 12:54 | 41.48779 | -70.83844 | 15626 ft | 214 kts | 297° |
| 2026-04-29 12:54 | 41.49484 | -70.85589 | 15872 ft | 214 kts | 297° |
| 2026-04-29 12:54 | 41.50206 | -70.87378 | 15912 ft | 225 kts | 298° |
| 2026-04-29 12:54 | 41.50963 | -70.89254 | 15910 ft | 234 kts | 298° |
| 2026-04-29 12:55 | 41.51748 | -70.91198 | 15912 ft | 241 kts | 298° |
| 2026-04-29 12:55 | 41.52554 | -70.93197 | 15915 ft | 246 kts | 298° |
| 2026-04-29 12:55 | 41.53370 | -70.95223 | 15923 ft | 249 kts | 298° |
| 2026-04-29 12:55 | 41.54196 | -70.97275 | 15924 ft | 252 kts | 298° |
| 2026-04-29 12:56 | 41.55030 | -70.99348 | 15917 ft | 254 kts | 298° |
| 2026-04-29 12:56 | 41.55866 | -71.01428 | 15925 ft | 255 kts | 298° |
| 2026-04-29 12:56 | 41.56707 | -71.03521 | 15926 ft | 256 kts | 298° |
| 2026-04-29 12:56 | 41.57552 | -71.05627 | 15926 ft | 257 kts | 298° |
| 2026-04-29 12:57 | 41.58386 | -71.07706 | 15917 ft | 258 kts | 297° |
| 2026-04-29 12:57 | 41.59245 | -71.09849 | 15926 ft | 258 kts | 297° |
| 2026-04-29 12:57 | 41.60081 | -71.11936 | 15926 ft | 258 kts | 297° |
| 2026-04-29 12:57 | 41.60928 | -71.14053 | 15926 ft | 258 kts | 297° |
| 2026-04-29 12:58 | 41.61776 | -71.16173 | 15920 ft | 258 kts | 297° |
| 2026-04-29 12:58 | 41.62624 | -71.18296 | 15924 ft | 259 kts | 297° |
| 2026-04-29 12:58 | 41.63471 | -71.20418 | 15916 ft | 259 kts | 297° |
| 2026-04-29 12:58 | 41.64315 | -71.22533 | 15924 ft | 259 kts | 297° |
| 2026-04-29 12:59 | 41.65164 | -71.24661 | 15917 ft | 259 kts | 297° |
| 2026-04-29 12:59 | 41.66010 | -71.26784 | 15924 ft | 259 kts | 297° |
| 2026-04-29 12:59 | 41.66856 | -71.28909 | 15924 ft | 259 kts | 297° |
| 2026-04-29 12:59 | 41.67699 | -71.31029 | 15917 ft | 259 kts | 297° |
| 2026-04-29 13:00 | 41.68544 | -71.33154 | 15924 ft | 259 kts | 297° |
| 2026-04-29 13:00 | 41.69378 | -71.35255 | 15919 ft | 259 kts | 297° |
| 2026-04-29 13:00 | 41.70219 | -71.37373 | 15924 ft | 259 kts | 297° |
| 2026-04-29 13:00 | 41.71066 | -71.39507 | 15924 ft | 259 kts | 297° |
| 2026-04-29 13:01 | 41.71909 | -71.41634 | 15924 ft | 258 kts | 297° |
| 2026-04-29 13:01 | 41.72832 | -71.43698 | 15915 ft | 257 kts | 306° |
| 2026-04-29 13:01 | 41.73903 | -71.45603 | 15918 ft | 258 kts | 307° |
| 2026-04-29 13:01 | 41.74992 | -71.47525 | 15916 ft | 258 kts | 306° |
| 2026-04-29 13:02 | 41.76070 | -71.49447 | 15918 ft | 258 kts | 306° |
| 2026-04-29 13:02 | 41.77149 | -71.51378 | 15917 ft | 259 kts | 306° |
| 2026-04-29 13:02 | 41.78217 | -71.53286 | 15918 ft | 259 kts | 306° |
| 2026-04-29 13:02 | 41.79298 | -71.55217 | 15916 ft | 259 kts | 306° |
| 2026-04-29 13:03 | 41.80376 | -71.57144 | 16035 ft | 257 kts | 307° |
| 2026-04-29 13:03 | 41.81442 | -71.59050 | 16040 ft | 253 kts | 307° |
| 2026-04-29 13:03 | 41.82491 | -71.60930 | 16027 ft | 251 kts | 307° |
| 2026-04-29 13:03 | 41.83535 | -71.62800 | 16044 ft | 249 kts | 307° |
| 2026-04-29 13:04 | 41.84568 | -71.64654 | 16037 ft | 248 kts | 307° |
| 2026-04-29 13:04 | 41.85600 | -71.66505 | 16035 ft | 247 kts | 307° |
| 2026-04-29 13:04 | 41.86627 | -71.68349 | 16045 ft | 246 kts | 307° |
| 2026-04-29 13:04 | 41.87658 | -71.70200 | 16007 ft | 248 kts | 307° |
| 2026-04-29 13:05 | 41.88685 | -71.72047 | 16009 ft | 247 kts | 307° |
| 2026-04-29 13:05 | 41.89364 | -71.73268 | 16009 ft | 247 kts | 306° |
| 2026-04-29 13:05 | 41.90727 | -71.75720 | 16008 ft | 247 kts | 306° |
| 2026-04-29 13:05 | 41.91753 | -71.77568 | 16005 ft | 247 kts | 306° |
| 2026-04-29 13:06 | 41.92779 | -71.79417 | 16007 ft | 247 kts | 306° |
| 2026-04-29 13:06 | 41.93806 | -71.81268 | 16008 ft | 247 kts | 306° |
| 2026-04-29 13:06 | 41.94831 | -71.83117 | 16005 ft | 247 kts | 306° |
| 2026-04-29 13:06 | 41.95710 | -71.85076 | 16007 ft | 245 kts | 290° |
| 2026-04-29 13:07 | 41.96067 | -71.86510 | 16006 ft | 245 kts | 288° |
| 2026-04-29 13:07 | 41.96753 | -71.89437 | 15999 ft | 246 kts | 288° |
| 2026-04-29 13:07 | 41.97100 | -71.90888 | 16000 ft | 246 kts | 288° |
| 2026-04-29 13:07 | 41.97631 | -71.93083 | 16000 ft | 247 kts | 288° |
| 2026-04-29 13:08 | 41.98161 | -71.95278 | 15996 ft | 247 kts | 288° |
| 2026-04-29 13:08 | 41.98681 | -71.97442 | 15995 ft | 247 kts | 288° |
| 2026-04-29 13:08 | 41.99217 | -71.99679 | 15993 ft | 247 kts | 288° |
| 2026-04-29 13:08 | 41.99743 | -72.01876 | 15991 ft | 247 kts | 288° |
| 2026-04-29 13:09 | 42.00271 | -72.04076 | 15988 ft | 247 kts | 288° |
| 2026-04-29 13:09 | 42.00797 | -72.06275 | 15990 ft | 247 kts | 288° |
| 2026-04-29 13:09 | 42.01316 | -72.08449 | 16007 ft | 246 kts | 288° |
| 2026-04-29 13:09 | 42.01841 | -72.10648 | 16000 ft | 247 kts | 288° |
| 2026-04-29 13:10 | 42.02366 | -72.12847 | 16000 ft | 247 kts | 288° |
| 2026-04-29 13:10 | 42.02890 | -72.15046 | 16005 ft | 247 kts | 288° |
| 2026-04-29 13:10 | 42.03414 | -72.17247 | 15996 ft | 247 kts | 288° |
| 2026-04-29 13:10 | 42.03937 | -72.19448 | 16003 ft | 247 kts | 288° |
| 2026-04-29 13:11 | 42.04461 | -72.21653 | 15989 ft | 247 kts | 288° |
| 2026-04-29 13:11 | 42.04984 | -72.23855 | 15986 ft | 247 kts | 288° |
| 2026-04-29 13:11 | 42.05502 | -72.26039 | 15986 ft | 247 kts | 287° |
| 2026-04-29 13:11 | 42.06028 | -72.28261 | 15986 ft | 247 kts | 287° |
| 2026-04-29 13:12 | 42.06547 | -72.30453 | 15984 ft | 247 kts | 287° |
| 2026-04-29 13:12 | 42.07070 | -72.32666 | 15977 ft | 247 kts | 287° |
| 2026-04-29 13:12 | 42.07584 | -72.34838 | 15978 ft | 246 kts | 287° |
| 2026-04-29 13:12 | 42.08102 | -72.37034 | 15975 ft | 246 kts | 287° |
| 2026-04-29 13:13 | 42.08627 | -72.39263 | 15969 ft | 246 kts | 287° |
| 2026-04-29 13:13 | 42.09146 | -72.41466 | 15968 ft | 246 kts | 287° |
| 2026-04-29 13:13 | 42.09656 | -72.43634 | 15970 ft | 247 kts | 287° |
| 2026-04-29 13:13 | 42.10174 | -72.45836 | 15968 ft | 247 kts | 287° |
| 2026-04-29 13:14 | 42.10691 | -72.48038 | 15970 ft | 246 kts | 287° |
| 2026-04-29 13:14 | 42.11207 | -72.50238 | 15966 ft | 246 kts | 287° |
| 2026-04-29 13:14 | 42.11723 | -72.52439 | 15966 ft | 246 kts | 287° |
| 2026-04-29 13:14 | 42.12242 | -72.54659 | 15965 ft | 246 kts | 287° |
| 2026-04-29 13:15 | 42.12753 | -72.56841 | 15969 ft | 246 kts | 287° |
| 2026-04-29 13:15 | 42.13266 | -72.59039 | 15968 ft | 246 kts | 287° |
| 2026-04-29 13:15 | 42.13782 | -72.61246 | 15971 ft | 246 kts | 287° |
| 2026-04-29 13:15 | 42.14294 | -72.63443 | 15990 ft | 246 kts | 287° |
| 2026-04-29 13:16 | 42.14807 | -72.65646 | 15993 ft | 246 kts | 287° |
| 2026-04-29 13:16 | 42.15320 | -72.67849 | 15992 ft | 246 kts | 287° |
| 2026-04-29 13:16 | 42.15831 | -72.70049 | 15997 ft | 246 kts | 287° |
| 2026-04-29 13:16 | 42.16475 | -72.72139 | 15994 ft | 246 kts | 301° |
| 2026-04-29 13:17 | 42.17480 | -72.74007 | 15994 ft | 246 kts | 305° |
| 2026-04-29 13:17 | 42.18511 | -72.75854 | 15997 ft | 247 kts | 305° |
| 2026-04-29 13:17 | 42.19532 | -72.77710 | 15997 ft | 247 kts | 304° |
| 2026-04-29 13:17 | 42.20546 | -72.79570 | 15997 ft | 246 kts | 304° |
| 2026-04-29 13:18 | 42.21564 | -72.81440 | 15998 ft | 247 kts | 304° |
| 2026-04-29 13:18 | 42.22588 | -72.83315 | 15998 ft | 247 kts | 304° |
| 2026-04-29 13:18 | 42.23609 | -72.85183 | 15994 ft | 248 kts | 304° |
| 2026-04-29 13:18 | 42.24632 | -72.87057 | 15999 ft | 248 kts | 304° |
| 2026-04-29 13:19 | 42.25640 | -72.88906 | 15991 ft | 247 kts | 304° |
| 2026-04-29 13:19 | 42.26661 | -72.90779 | 15999 ft | 247 kts | 304° |
| 2026-04-29 13:19 | 42.27678 | -72.92647 | 15992 ft | 247 kts | 304° |
| 2026-04-29 13:19 | 42.28697 | -72.94519 | 15994 ft | 247 kts | 304° |
| 2026-04-29 13:20 | 42.29714 | -72.96387 | 15993 ft | 247 kts | 304° |
| 2026-04-29 13:20 | 42.30731 | -72.98258 | 15989 ft | 247 kts | 304° |
| 2026-04-29 13:20 | 42.31749 | -73.00132 | 15970 ft | 247 kts | 304° |
| 2026-04-29 13:20 | 42.32768 | -73.02010 | 15889 ft | 250 kts | 304° |
| 2026-04-29 13:21 | 42.33813 | -73.03936 | 15693 ft | 256 kts | 304° |
| 2026-04-29 13:21 | 42.34873 | -73.05890 | 15495 ft | 260 kts | 304° |
| 2026-04-29 13:21 | 42.35949 | -73.07875 | 15297 ft | 263 kts | 304° |
| 2026-04-29 13:21 | 42.37034 | -73.09876 | 15101 ft | 265 kts | 304° |
| 2026-04-29 13:22 | 42.38124 | -73.11891 | 14905 ft | 266 kts | 304° |
| 2026-04-29 13:22 | 42.39204 | -73.13888 | 14701 ft | 266 kts | 304° |
| 2026-04-29 13:22 | 42.40304 | -73.15923 | 14419 ft | 269 kts | 304° |
| 2026-04-29 13:22 | 42.41413 | -73.17975 | 14138 ft | 270 kts | 304° |
| 2026-04-29 13:23 | 42.42515 | -73.20017 | 13851 ft | 268 kts | 305° |
| 2026-04-29 13:23 | 42.43610 | -73.22044 | 13537 ft | 265 kts | 304° |
| 2026-04-29 13:23 | 42.44695 | -73.24058 | 13224 ft | 264 kts | 304° |
| 2026-04-29 13:23 | 42.45772 | -73.26058 | 12914 ft | 262 kts | 304° |
| 2026-04-29 13:24 | 42.46843 | -73.28048 | 12647 ft | 260 kts | 304° |
| 2026-04-29 13:24 | 42.47905 | -73.30022 | 12389 ft | 258 kts | 304° |
| 2026-04-29 13:24 | 42.48959 | -73.31983 | 12138 ft | 257 kts | 304° |
| 2026-04-29 13:24 | 42.50009 | -73.33938 | 11889 ft | 256 kts | 304° |
| 2026-04-29 13:25 | 42.51056 | -73.35887 | 11637 ft | 255 kts | 304° |
| 2026-04-29 13:25 | 42.53132 | -73.39758 | 11220 ft | 252 kts | 305° |
| 2026-04-29 13:25 | 42.54160 | -73.41676 | 11018 ft | 251 kts | 304° |
| 2026-04-29 13:26 | 42.55191 | -73.43601 | 10824 ft | 250 kts | 305° |
| 2026-04-29 13:26 | 42.56191 | -73.45468 | 10642 ft | 249 kts | 305° |
| 2026-04-29 13:26 | 42.57221 | -73.47394 | 10437 ft | 249 kts | 305° |
| 2026-04-29 13:26 | 42.58229 | -73.49279 | 10201 ft | 251 kts | 305° |
| 2026-04-29 13:27 | 42.59250 | -73.51189 | 9968 ft | 251 kts | 305° |
| 2026-04-29 13:27 | 42.60280 | -73.53118 | 9703 ft | 251 kts | 305° |
| 2026-04-29 13:27 | 42.61305 | -73.55039 | 9447 ft | 251 kts | 305° |
| 2026-04-29 13:27 | 42.62320 | -73.56943 | 9184 ft | 249 kts | 304° |
| 2026-04-29 13:28 | 42.63330 | -73.58838 | 8924 ft | 247 kts | 304° |
| 2026-04-29 13:28 | 42.64338 | -73.60732 | 8660 ft | 245 kts | 305° |
| 2026-04-29 13:28 | 42.65334 | -73.62604 | 8409 ft | 244 kts | 304° |
| 2026-04-29 13:28 | 42.66325 | -73.64467 | 8161 ft | 243 kts | 305° |
| 2026-04-29 13:29 | 42.67314 | -73.66328 | 7907 ft | 242 kts | 304° |
| 2026-04-29 13:29 | 42.68299 | -73.68183 | 7658 ft | 241 kts | 304° |
| 2026-04-29 13:29 | 42.69289 | -73.70047 | 7409 ft | 240 kts | 304° |
| 2026-04-29 13:29 | 42.70235 | -73.71830 | 7168 ft | 239 kts | 304° |
| 2026-04-29 13:30 | 42.71220 | -73.73689 | 6918 ft | 236 kts | 304° |
| 2026-04-29 13:30 | 42.72166 | -73.75475 | 6682 ft | 235 kts | 304° |
| 2026-04-29 13:30 | 42.73119 | -73.77275 | 6480 ft | 233 kts | 304° |
| 2026-04-29 13:30 | 42.74061 | -73.79054 | 6278 ft | 230 kts | 304° |
| 2026-04-29 13:31 | 42.75043 | -73.80745 | 6067 ft | 227 kts | 313° |
| 2026-04-29 13:31 | 42.76185 | -73.82222 | 5858 ft | 226 kts | 315° |
| 2026-04-29 13:31 | 42.77334 | -73.83675 | 5663 ft | 226 kts | 315° |
| 2026-04-29 13:31 | 42.78480 | -73.85141 | 5462 ft | 226 kts | 315° |
| 2026-04-29 13:32 | 42.79622 | -73.86612 | 5258 ft | 225 kts | 315° |
| 2026-04-29 13:32 | 42.80757 | -73.88076 | 5058 ft | 226 kts | 314° |
| 2026-04-29 13:32 | 42.81904 | -73.89555 | 4863 ft | 230 kts | 314° |
| 2026-04-29 13:32 | 42.83080 | -73.91070 | 4658 ft | 234 kts | 314° |
| 2026-04-29 13:33 | 42.84250 | -73.92578 | 4457 ft | 236 kts | 315° |
| 2026-04-29 13:33 | 42.85374 | -73.94201 | 4255 ft | 234 kts | 306° |
| 2026-04-29 13:33 | 42.86392 | -73.95942 | 4076 ft | 234 kts | 310° |
| 2026-04-29 13:33 | 42.87753 | -73.97128 | 3892 ft | 238 kts | 339° |
| 2026-04-29 13:34 | 42.89407 | -73.97448 | 3424 ft | 243 kts | 359° |
| 2026-04-29 13:34 | 42.91079 | -73.97186 | 3156 ft | 239 kts | 11° |
| 2026-04-29 13:34 | 42.92686 | -73.96660 | 3120 ft | 235 kts | 14° |
| 2026-04-29 13:34 | 42.94260 | -73.96109 | 2991 ft | 234 kts | 13° |
| 2026-04-29 13:35 | 42.95838 | -73.95596 | 2816 ft | 228 kts | 13° |
| 2026-04-29 13:35 | 42.97340 | -73.95108 | 2639 ft | 220 kts | 13° |
| 2026-04-29 13:35 | 42.98800 | -73.94607 | 2546 ft | 210 kts | 16° |
| 2026-04-29 13:35 | 43.00149 | -73.94130 | 2466 ft | 197 kts | 13° |
| 2026-04-29 13:36 | 43.01418 | -73.93806 | 2437 ft | 176 kts | 11° |
| 2026-04-29 13:36 | 43.02587 | -73.93458 | 2247 ft | 168 kts | 18° |
| 2026-04-29 13:36 | 43.03601 | -73.92891 | 2107 ft | 149 kts | 30° |
| 2026-04-29 13:36 | 43.04444 | -73.92158 | 1865 ft | 140 kts | 40° |
| 2026-04-29 13:37 | 43.05174 | -73.91386 | 1736 ft | 125 kts | 43° |
| 2026-04-29 13:37 | 43.05774 | -73.90654 | 1588 ft | 114 kts | 46° |
| 2026-04-29 13:37 | 43.06297 | -73.89866 | 1337 ft | 108 kts | 57° |
| 2026-04-29 13:37 | 43.06562 | -73.88957 | 1133 ft | 100 kts | 94° |
| 2026-04-29 13:38 | 43.06291 | -73.88118 | 794 ft | 98 kts | 131° |
| 2026-04-29 13:38 | 43.05858 | -73.87419 | 640 ft | 96 kts | 130° |
| 2026-04-29 13:38 | 43.05451 | -73.86726 | 467 ft | 89 kts | 129° |
| 2026-04-29 13:38 | 43.05115 | -73.86155 | 445 ft | 52 kts | 129° |
| 2026-04-29 13:39 | 43.04975 | -73.85916 | 443 ft | 30 kts | 128° |
| 2026-04-29 13:39 | 43.04842 | -73.85688 | 442 ft | 30 kts | 128° |
| 2026-04-29 13:39 | 43.04753 | -73.85580 | 434 ft | 16 kts | 174° |
| 2026-04-29 13:39 | 43.04656 | -73.85576 | 440 ft | 11 kts | 202° |
| 2026-04-29 13:40 | 43.04638 | -73.85676 | 441 ft | 12 kts | 263° |
| 2026-04-29 13:40 | 43.04632 | -73.85785 | 442 ft | 11 kts | 282° |
| 2026-04-29 13:40 | 43.04679 | -73.85873 | 441 ft | 12 kts | 308° |
| 2026-04-29 13:40 | 43.04714 | -73.85933 | 439 ft | 0 kts | 302° |
| 2026-04-29 13:41 | 43.04717 | -73.85942 | 443 ft | 4 kts | 290° |
| 2026-04-29 13:41 | 43.04720 | -73.85987 | 445 ft | 6 kts | 273° |
| 2026-04-29 13:41 | 43.04715 | -73.86016 | 445 ft | 3 kts | 204° |
| 2026-04-29 13:41 | 43.04708 | -73.86015 | 437 ft | 0 kts | 168° |